»·PEaware :: N348PD KSNA-KOXR

N348PD :: KSNA-KOXR

FLIGHT INFORMATION

Flight Status: Arrived
Operator: Privately registered:
United States
More flights under this callsign
Pilot: Anderson D. (26739)
Aircraft: PIPER PA-44 SEMINOLE
(PA44)
More flights by this aircraft type
Origin: KSNA John Wayne-Orange Co
United States
Destination: KOXR Oxnard
United States
More flights between these airports :: More routes between these airports
Route: SLI V23 POPPR SMO125 SMO VNY
File this flight plan on PilotEdge
Remarks:
Altitude:
(Current/Filed)
4,000ft
Speed:
(Current/Filed)
150kts
Departed: 22-Jan-21 04:38 PM
Arrived: 22-Jan-21 05:18 PM
Distance/Time
Traveled:
74nm/0:39
Distance/Time
To Go:
Arrived

Flight Plot

Page will automatically refresh every two minutes.


Map Options




Map Legend


Flown Route
Filed Route
Departure Airport
Arrival Airport
Navaid (VOR, NDB)
Fix

Horizontal Profiles

Position Reports

Time Latitude Longitude Heading Altitude Ground
Speed
22-Jan-21 16:23 33.676084 -117.870905 219 61ft 0kts
22-Jan-21 16:24 33.676084 -117.870905 219 61ft 0kts
22-Jan-21 16:25 33.676084 -117.870905 219 61ft 0kts
22-Jan-21 16:26 33.676084 -117.870905 219 61ft 0kts
22-Jan-21 16:27 33.676084 -117.870905 219 61ft 0kts
22-Jan-21 16:29 33.676084 -117.870905 219 61ft 0kts
22-Jan-21 16:30 33.676084 -117.870905 219 61ft 0kts
22-Jan-21 16:31 33.676084 -117.870905 219 61ft 0kts
22-Jan-21 16:32 33.676084 -117.870905 219 61ft 0kts
22-Jan-21 16:33 33.676063 -117.870926 218 61ft 1kts
22-Jan-21 16:34 33.675851 -117.870836 135 61ft 0kts
22-Jan-21 16:35 33.676135 -117.870025 25 61ft 16kts
22-Jan-21 16:36 33.681213 -117.866488 112 61ft 2kts
22-Jan-21 16:37 33.681212 -117.866484 113 61ft 0kts
22-Jan-21 16:38 33.672363 -117.870756 211 385ft 90kts
22-Jan-21 16:39 33.655982 -117.890288 235 1963ft 84kts
22-Jan-21 16:40 33.635544 -117.919642 237 2550ft 127kts
22-Jan-21 16:41 33.615560 -117.950852 256 3769ft 116kts
22-Jan-21 16:42 33.638608 -117.982713 309 4045ft 147kts
22-Jan-21 16:43 33.665503 -118.021921 307 4027ft 155kts
22-Jan-21 16:44 33.691002 -118.062244 305 4047ft 153kts
22-Jan-21 16:45 33.717592 -118.102248 306 3999ft 153kts
22-Jan-21 16:46 33.744322 -118.142004 306 3999ft 153kts
22-Jan-21 16:46 33.766185 -118.174473 306 3999ft 153kts
22-Jan-21 16:47 33.793434 -118.214970 307 3998ft 153kts
22-Jan-21 16:48 33.820182 -118.254758 307 3998ft 153kts
22-Jan-21 16:50 33.853597 -118.298749 317 3998ft 153kts
22-Jan-21 16:50 33.880791 -118.326380 318 3999ft 153kts
22-Jan-21 16:51 33.913184 -118.358976 318 3999ft 152kts
22-Jan-21 16:52 33.945944 -118.391898 318 3995ft 152kts
22-Jan-21 16:53 33.978445 -118.424597 317 3992ft 152kts
22-Jan-21 16:54 34.012530 -118.454521 341 3988ft 156kts
22-Jan-21 16:55 34.055722 -118.463745 348 3985ft 158kts
22-Jan-21 16:56 34.098475 -118.471048 348 3981ft 159kts
22-Jan-21 16:57 34.141455 -118.483582 303 3964ft 153kts
22-Jan-21 16:58 34.146549 -118.533468 272 3977ft 150kts
22-Jan-21 16:59 34.149217 -118.583808 272 3977ft 150kts
22-Jan-21 17:00 34.151487 -118.634149 272 3977ft 149kts
22-Jan-21 17:01 34.153184 -118.683834 272 3980ft 150kts
22-Jan-21 17:02 34.154354 -118.734909 272 3981ft 150kts
22-Jan-21 17:03 34.166083 -118.782662 292 3998ft 149kts
22-Jan-21 17:04 34.181396 -118.829382 292 4001ft 150kts
22-Jan-21 17:05 34.194522 -118.876357 281 4000ft 140kts
22-Jan-21 17:06 34.197806 -118.919209 274 3724ft 112kts
22-Jan-21 17:07 34.198624 -118.949954 274 3497ft 79kts
22-Jan-21 17:08 34.198936 -118.982548 272 3246ft 106kts
22-Jan-21 17:09 34.199223 -119.012154 273 3062ft 76kts
22-Jan-21 17:10 34.199688 -119.039958 273 2657ft 85kts
22-Jan-21 17:11 34.199988 -119.067686 272 2212ft 85kts
22-Jan-21 17:12 34.200231 -119.097007 270 1734ft 83kts
22-Jan-21 17:13 34.200131 -119.124299 270 1290ft 79kts
22-Jan-21 17:14 34.200327 -119.150471 270 869ft 76kts
22-Jan-21 17:15 34.200132 -119.176068 268 464ft 77kts
22-Jan-21 17:16 34.200760 -119.200216 268 47ft 57kts
22-Jan-21 17:17 34.199727 -119.206705 113 38ft 14kts

Navigation Log

Ident Type
Flight plan parsing failed, navigation log unavailable